createdAt,value
2019-05-02T00:01:02.676Z,1003.15
2019-05-02T00:02:08.194Z,1003.17
2019-05-02T00:03:13.700Z,1003.15
2019-05-02T00:04:21.046Z,1003.17
2019-05-02T00:05:27.316Z,1003.14
2019-05-02T00:06:30.223Z,1003.12
2019-05-02T00:07:35.731Z,1003.18
2019-05-02T00:08:41.225Z,1003.13
2019-05-02T00:09:48.358Z,1003.13
2019-05-02T00:10:52.259Z,1003.14
2019-05-02T00:11:58.910Z,1003.11
2019-05-02T00:13:03.275Z,1003.09
2019-05-02T00:14:08.787Z,1003.10
2019-05-02T00:15:14.319Z,1003.12
2019-05-02T00:16:19.801Z,1003.10
2019-05-02T00:17:27.401Z,1003.07
2019-05-02T00:18:31.846Z,1003.05
2019-05-02T00:19:36.337Z,1003.01
2019-05-02T00:20:41.841Z,1003.04
2019-05-02T00:21:47.355Z,1003.02
2019-05-02T00:22:53.462Z,1003.03
2019-05-02T00:23:59.166Z,1003.02
2019-05-02T00:25:03.887Z,1003.04
2019-05-02T00:26:09.390Z,1003.00
2019-05-02T00:27:14.911Z,1003.01
2019-05-02T00:28:20.408Z,1003.04
2019-05-02T00:29:25.944Z,1003.02
2019-05-02T00:30:34.760Z,1002.99
2019-05-02T00:31:36.939Z,1002.99
2019-05-02T00:32:42.451Z,1002.98
2019-05-02T00:33:47.962Z,1002.97
2019-05-02T00:34:53.472Z,1002.95
2019-05-02T00:35:58.984Z,1002.93
2019-05-02T00:37:04.487Z,1002.89
2019-05-02T00:38:09.997Z,1002.90
2019-05-02T00:39:15.506Z,1002.94
2019-05-02T00:40:25.765Z,1002.91
2019-05-02T00:41:26.570Z,1002.87
2019-05-02T00:42:32.036Z,1002.89
2019-05-02T00:43:37.548Z,1002.89
2019-05-02T00:44:47.030Z,1002.89
2019-05-02T00:45:48.563Z,1002.88
2019-05-02T00:46:54.075Z,1002.92
2019-05-02T00:47:59.579Z,1002.88
2019-05-02T00:49:05.089Z,1002.88
2019-05-02T00:50:11.310Z,1002.87
2019-05-02T00:51:16.111Z,1002.87
2019-05-02T00:52:21.627Z,1002.84
2019-05-02T00:53:27.124Z,1002.82
2019-05-02T00:54:32.641Z,1002.83
2019-05-02T00:55:38.151Z,1002.84
2019-05-02T00:56:44.274Z,1002.81
2019-05-02T00:57:50.852Z,1002.80
2019-05-02T00:58:54.682Z,1002.78
2019-05-02T01:00:00.195Z,1002.78
2019-05-02T01:01:05.703Z,1002.78
2019-05-02T01:02:11.205Z,1002.77
2019-05-02T01:03:17.959Z,1002.76
2019-05-02T01:04:23.388Z,1002.75
2019-05-02T01:05:27.736Z,1002.73
2019-05-02T01:06:33.241Z,1002.72
2019-05-02T01:07:38.767Z,1002.76
2019-05-02T01:08:44.266Z,1002.73
2019-05-02T01:09:49.770Z,1002.74
2019-05-02T01:10:56.864Z,1002.76
2019-05-02T01:12:03.187Z,1002.77
2019-05-02T01:13:06.298Z,1002.75
2019-05-02T01:14:11.813Z,1002.69
2019-05-02T01:15:17.338Z,1002.72
2019-05-02T01:16:22.831Z,1002.70
2019-05-02T01:17:30.902Z,1002.75
2019-05-02T01:20:01.482Z,1002.69
2019-05-02T01:21:26.163Z,1002.72
2019-05-02T01:22:21.045Z,1002.70
2019-05-02T01:23:29.294Z,1002.69
2019-05-02T01:24:42.769Z,1002.66
2019-05-02T01:25:47.234Z,1002.66
2019-05-02T01:26:45.751Z,1002.62
2019-05-02T01:27:50.366Z,1002.64
2019-05-02T01:28:59.488Z,1002.62
2019-05-02T01:30:18.744Z,1002.61
2019-05-02T01:31:18.263Z,1002.62
2019-05-02T01:32:29.955Z,1002.61
2019-05-02T01:33:36.992Z,1002.55
2019-05-02T01:34:38.945Z,1002.53
2019-05-02T01:36:01.607Z,1002.53
2019-05-02T01:36:41.136Z,1002.54
2019-05-02T01:37:54.776Z,1002.54
2019-05-02T01:39:08.880Z,1002.52
2019-05-02T01:40:06.326Z,1002.46
2019-05-02T01:41:09.604Z,1002.44
2019-05-02T01:42:09.509Z,1002.42
2019-05-02T01:43:06.855Z,1002.47
2019-05-02T01:44:36.142Z,1002.44
2019-05-02T01:45:26.434Z,1002.42
2019-05-02T01:46:28.890Z,1002.39
2019-05-02T01:47:44.772Z,1002.39
2019-05-02T01:48:49.796Z,1002.37
2019-05-02T01:49:45.500Z,1002.35
2019-05-02T01:50:48.886Z,1002.34
2019-05-02T01:51:56.881Z,1002.33
2019-05-02T01:53:04.361Z,1002.36
2019-05-02T01:54:16.554Z,1002.31
2019-05-02T01:55:21.071Z,1002.35
2019-05-02T01:56:32.933Z,1002.35
2019-05-02T01:57:29.376Z,1002.33
2019-05-02T01:58:40.749Z,1002.35
2019-05-02T01:59:41.266Z,1002.31
2019-05-02T02:00:52.643Z,1002.34
2019-05-02T02:02:03.196Z,1002.31
2019-05-02T02:03:14.776Z,1002.28
2019-05-02T02:03:52.661Z,1002.33
2019-05-02T02:05:16.424Z,1002.30
2019-05-02T02:06:22.985Z,1002.32
2019-05-02T02:07:21.458Z,1002.34
2019-05-02T02:08:32.329Z,1002.33
2019-05-02T02:09:30.379Z,1002.34
2019-05-02T02:11:15.034Z,1002.31
2019-05-02T02:12:18.215Z,1002.31
2019-05-02T02:13:14.024Z,1002.28
2019-05-02T02:14:18.230Z,1002.26
2019-05-02T02:15:30.828Z,1002.24
2019-05-02T02:16:35.117Z,1002.30
2019-05-02T02:17:39.546Z,1002.26
2019-05-02T02:18:53.686Z,1002.25
2019-05-02T02:19:29.935Z,1002.24
2019-05-02T02:20:50.261Z,1002.25
2019-05-02T02:22:47.879Z,1002.24
2019-05-02T02:23:19.539Z,1002.24
2019-05-02T02:24:45.020Z,1002.24
2019-05-02T02:25:37.487Z,1002.23
2019-05-02T02:26:51.496Z,1002.22
2019-05-02T02:28:26.311Z,1002.18
2019-05-02T02:29:43.872Z,1002.22
2019-05-02T02:30:32.576Z,1002.23
2019-05-02T02:31:54.902Z,1002.18
2019-05-02T02:33:27.480Z,1002.22
2019-05-02T02:34:02.313Z,1002.19
2019-05-02T02:35:19.498Z,1002.17
2019-05-02T02:37:05.358Z,1002.20
2019-05-02T02:37:52.741Z,1002.14
2019-05-02T02:39:20.757Z,1002.16
2019-05-02T02:40:01.520Z,1002.17
2019-05-02T02:41:12.770Z,1002.13
2019-05-02T02:42:52.711Z,1002.17
2019-05-02T02:43:41.568Z,1002.15
2019-05-02T02:44:44.246Z,1002.16
2019-05-02T02:45:57.471Z,1002.12
2019-05-02T02:46:53.778Z,1002.16
2019-05-02T02:49:26.262Z,1002.17
2019-05-02T02:50:45.074Z,1002.16
2019-05-02T02:51:43.261Z,1002.11
2019-05-02T02:52:54.026Z,1002.13
2019-05-02T02:53:43.795Z,1002.13
2019-05-02T02:55:25.065Z,1002.13
2019-05-02T02:56:58.246Z,1002.16
2019-05-02T02:57:34.202Z,1002.15
2019-05-02T02:59:45.469Z,1002.15
2019-05-02T03:01:02.780Z,1002.15
2019-05-02T03:02:03.117Z,1002.13
2019-05-02T03:03:45.707Z,1002.19
2019-05-02T03:04:26.778Z,1002.13
2019-05-02T03:06:05.285Z,1002.18
2019-05-02T03:07:04.459Z,1002.13
2019-05-02T03:08:05.193Z,1002.16
2019-05-02T03:09:02.423Z,1002.14
2019-05-02T03:10:17.076Z,1002.11
2019-05-02T03:11:43.297Z,1002.12
2019-05-02T03:12:36.056Z,1002.12
2019-05-02T03:14:00.120Z,1002.12
2019-05-02T03:14:31.143Z,1002.10
2019-05-02T03:15:52.245Z,1002.11
2019-05-02T03:17:02.071Z,1002.08
2019-05-02T03:18:20.818Z,1002.08
2019-05-02T03:19:20.927Z,1002.11
2019-05-02T03:20:07.929Z,1002.08
2019-05-02T03:21:28.933Z,1002.08
2019-05-02T03:22:34.628Z,1002.06
2019-05-02T03:23:14.927Z,1002.08
2019-05-02T03:24:28.857Z,1002.06
2019-05-02T03:25:24.918Z,1002.05
2019-05-02T03:27:07.667Z,1002.03
2019-05-02T03:28:02.669Z,1002.04
2019-05-02T03:28:52.326Z,1002.07
2019-05-02T03:30:20.219Z,1002.06
2019-05-02T03:31:41.086Z,1002.05
2019-05-02T03:32:34.963Z,1002.09
2019-05-02T03:34:05.261Z,1002.06
2019-05-02T03:34:54.241Z,1002.05
2019-05-02T03:36:34.877Z,1002.08
2019-05-02T03:37:53.100Z,1002.02
2019-05-02T03:38:54.135Z,1002.03
2019-05-02T03:39:41.444Z,1002.05
2019-05-02T03:41:03.983Z,1002.09
2019-05-02T03:42:03.000Z,1002.07
2019-05-02T03:42:53.750Z,1002.07
2019-05-02T03:44:32.004Z,1002.09
2019-05-02T03:45:39.614Z,1002.06
2019-05-02T03:46:39.756Z,1002.04
2019-05-02T03:47:47.438Z,1002.03
2019-05-02T03:48:35.666Z,1002.01
2019-05-02T03:49:52.632Z,1002.01
2019-05-02T03:50:50.631Z,1001.93
2019-05-02T03:51:35.074Z,1001.99
2019-05-02T03:53:17.402Z,1001.98
2019-05-02T03:53:40.615Z,1001.96
2019-05-02T03:54:56.084Z,1001.95
2019-05-02T03:56:29.376Z,1001.94
2019-05-02T03:59:44.044Z,1001.86
2019-05-02T04:00:29.402Z,1001.93
2019-05-02T04:01:47.741Z,1001.93
2019-05-02T04:03:00.073Z,1001.91
2019-05-02T04:03:57.482Z,1001.92
2019-05-02T04:05:18.989Z,1001.92
2019-05-02T04:06:13.559Z,1001.85
2019-05-02T04:06:54.808Z,1001.87
2019-05-02T04:08:26.589Z,1001.80
2019-05-02T04:09:02.238Z,1001.79
2019-05-02T04:10:43.702Z,1001.78
2019-05-02T04:11:15.966Z,1001.82
2019-05-02T04:12:32.784Z,1001.79
2019-05-02T04:13:38.127Z,1001.79
2019-05-02T04:14:40.064Z,1001.81
2019-05-02T04:15:39.027Z,1001.79
2019-05-02T04:16:54.993Z,1001.79
2019-05-02T04:18:08.271Z,1001.80
2019-05-02T04:19:08.231Z,1001.78
2019-05-02T04:20:26.774Z,1001.78
2019-05-02T04:21:13.059Z,1001.82
2019-05-02T04:22:28.635Z,1001.82
2019-05-02T04:23:21.091Z,1001.85
2019-05-02T04:24:25.468Z,1001.85
2019-05-02T04:25:38.480Z,1001.84
2019-05-02T04:26:45.825Z,1001.83
2019-05-02T04:27:42.393Z,1001.85
2019-05-02T04:29:07.174Z,1001.83
2019-05-02T04:30:03.938Z,1001.82
2019-05-02T04:31:11.698Z,1001.86
2019-05-02T04:32:14.133Z,1001.84
2019-05-02T04:33:14.367Z,1001.82
2019-05-02T04:34:14.935Z,1001.84
2019-05-02T04:35:42.645Z,1001.84
2019-05-02T04:36:23.403Z,1001.83
2019-05-02T04:37:34.147Z,1001.84
2019-05-02T04:38:54.449Z,1001.84
2019-05-02T04:39:39.072Z,1001.81
2019-05-02T04:40:49.847Z,1001.82
2019-05-02T04:41:48.594Z,1001.80
2019-05-02T04:43:18.310Z,1001.78
2019-05-02T04:44:02.773Z,1001.75
2019-05-02T04:45:13.920Z,1001.77
2019-05-02T04:46:25.558Z,1001.78
2019-05-02T04:47:29.054Z,1001.73
2019-05-02T04:48:20.411Z,1001.76
2019-05-02T04:49:35.732Z,1001.78
2019-05-02T04:50:32.305Z,1001.76
2019-05-02T04:51:38.087Z,1001.77
2019-05-02T04:52:53.869Z,1001.76
2019-05-02T04:53:54.955Z,1001.77
2019-05-02T04:55:00.830Z,1001.75
2019-05-02T04:56:18.899Z,1001.79
2019-05-02T04:57:11.977Z,1001.76
2019-05-02T04:58:27.364Z,1001.80
2019-05-02T04:59:17.816Z,1001.81
2019-05-02T05:00:32.062Z,1001.81
2019-05-02T05:01:48.157Z,1001.78
2019-05-02T05:02:40.480Z,1001.76
2019-05-02T05:03:48.404Z,1001.80
2019-05-02T05:04:46.363Z,1001.77
2019-05-02T05:06:07.287Z,1001.77
2019-05-02T05:07:00.970Z,1001.75
2019-05-02T05:08:16.809Z,1001.73
2019-05-02T05:09:09.650Z,1001.76
2019-05-02T05:10:20.361Z,1001.68
2019-05-02T05:11:39.412Z,1001.70
2019-05-02T05:12:27.770Z,1001.70
2019-05-02T05:13:26.254Z,1001.68
2019-05-02T05:14:42.894Z,1001.67
2019-05-02T05:15:51.710Z,1001.65
2019-05-02T05:16:55.336Z,1001.68
2019-05-02T05:17:58.307Z,1001.70
2019-05-02T05:19:04.035Z,1001.71
2019-05-02T05:20:00.114Z,1001.76
2019-05-02T05:21:18.043Z,1001.73
2019-05-02T05:22:22.284Z,1001.75
2019-05-02T05:23:34.066Z,1001.76
2019-05-02T05:24:42.137Z,1001.80
2019-05-02T05:25:38.098Z,1001.77
2019-05-02T05:26:43.609Z,1001.81
2019-05-02T05:27:47.919Z,1001.85
2019-05-02T05:28:48.743Z,1001.83
2019-05-02T05:30:07.628Z,1001.85
2019-05-02T05:31:00.939Z,1001.79
2019-05-02T05:32:09.766Z,1001.86
2019-05-02T05:33:10.193Z,1001.89
2019-05-02T05:34:17.493Z,1001.88
2019-05-02T05:35:23.806Z,1001.87
2019-05-02T05:36:34.365Z,1001.89
2019-05-02T05:37:38.072Z,1001.90
2019-05-02T05:38:44.307Z,1001.89
2019-05-02T05:39:50.951Z,1001.92
2019-05-02T05:40:55.276Z,1001.90
2019-05-02T05:41:58.463Z,1001.91
2019-05-02T05:43:02.056Z,1001.89
2019-05-02T05:44:10.250Z,1001.86
2019-05-02T05:45:13.810Z,1001.90
2019-05-02T05:46:20.706Z,1001.87
2019-05-02T05:47:27.683Z,1001.87
2019-05-02T05:48:31.979Z,1001.90
2019-05-02T05:49:37.527Z,1001.89
2019-05-02T05:50:37.084Z,1001.87
2019-05-02T05:51:41.331Z,1001.85
2019-05-02T05:52:44.415Z,1001.89
2019-05-02T05:53:56.743Z,1001.89
2019-05-02T05:54:54.451Z,1001.90
2019-05-02T05:56:11.048Z,1001.92
2019-05-02T05:57:16.727Z,1001.91
2019-05-02T05:58:28.371Z,1001.88
2019-05-02T05:59:17.508Z,1001.87
2019-05-02T06:00:40.769Z,1001.83
2019-05-02T06:01:34.572Z,1001.81
2019-05-02T06:02:50.899Z,1001.84
2019-05-02T06:03:44.631Z,1001.83
2019-05-02T06:04:55.121Z,1001.83
2019-05-02T06:06:00.573Z,1001.90
2019-05-02T06:07:07.264Z,1001.86
2019-05-02T06:08:08.877Z,1001.85
2019-05-02T06:09:13.854Z,1001.82
2019-05-02T06:10:18.311Z,1001.86
2019-05-02T06:11:21.774Z,1001.83
2019-05-02T06:12:30.047Z,1001.83
2019-05-02T06:13:38.040Z,1001.85
2019-05-02T06:14:38.715Z,1001.81
2019-05-02T06:15:47.433Z,1001.84
2019-05-02T06:16:56.242Z,1001.83
2019-05-02T06:18:04.850Z,1001.83
2019-05-02T06:19:03.424Z,1001.83
2019-05-02T06:20:09.367Z,1001.75
2019-05-02T06:21:11.627Z,1001.73
2019-05-02T06:22:24.132Z,1001.74
2019-05-02T06:23:20.765Z,1001.74
2019-05-02T06:24:38.888Z,1001.75
2019-05-02T06:25:42.887Z,1001.74
2019-05-02T06:26:44.581Z,1001.70
2019-05-02T06:27:49.965Z,1001.72
2019-05-02T06:28:41.788Z,1001.73
2019-05-02T06:30:06.978Z,1001.66
2019-05-02T06:31:08.688Z,1001.63
2019-05-02T06:32:04.947Z,1001.68
2019-05-02T06:33:15.192Z,1001.67
2019-05-02T06:34:11.612Z,1001.64
2019-05-02T06:35:21.147Z,1001.63
2019-05-02T06:36:36.760Z,1001.65
2019-05-02T06:37:29.972Z,1001.63
2019-05-02T06:38:42.771Z,1001.63
2019-05-02T06:39:46.567Z,1001.59
2019-05-02T06:40:50.978Z,1001.60
2019-05-02T06:42:00.002Z,1001.56
2019-05-02T06:43:04.089Z,1001.55
2019-05-02T06:44:00.729Z,1001.55
2019-05-02T06:45:13.540Z,1001.60
2019-05-02T06:46:27.653Z,1001.54
2019-05-02T06:47:29.110Z,1001.53
2019-05-02T06:48:31.788Z,1001.50
2019-05-02T06:49:29.739Z,1001.54
2019-05-02T06:50:40.682Z,1001.55
2019-05-02T06:51:41.324Z,1001.51
2019-05-02T06:52:48.397Z,1001.50
2019-05-02T06:54:09.294Z,1001.52
2019-05-02T06:55:09.913Z,1001.54
2019-05-02T06:56:15.249Z,1001.48
2019-05-02T06:57:18.913Z,1001.53
2019-05-02T06:58:17.208Z,1001.52
2019-05-02T06:59:20.280Z,1001.53
2019-05-02T07:00:37.263Z,1001.55
2019-05-02T07:01:46.104Z,1001.51
2019-05-02T07:02:39.153Z,1001.51
2019-05-02T07:03:46.145Z,1001.53
2019-05-02T07:04:48.070Z,1001.51
2019-05-02T07:05:58.544Z,1001.45
2019-05-02T07:07:03.524Z,1001.46
2019-05-02T07:08:13.385Z,1001.47
2019-05-02T07:09:09.392Z,1001.47
2019-05-02T07:10:19.844Z,1001.48
2019-05-02T07:11:24.771Z,1001.49
2019-05-02T07:12:33.181Z,1001.45
2019-05-02T07:13:30.622Z,1001.47
2019-05-02T07:14:45.590Z,1001.44
2019-05-02T07:15:49.791Z,1001.52
2019-05-02T07:16:49.588Z,1001.48
2019-05-02T07:18:05.427Z,1001.54
2019-05-02T07:19:03.116Z,1001.51
2019-05-02T07:20:14.087Z,1001.53
2019-05-02T07:21:12.035Z,1001.54
2019-05-02T07:22:21.062Z,1001.52
2019-05-02T07:23:23.522Z,1001.53
2019-05-02T07:24:30.865Z,1001.55
2019-05-02T07:25:31.935Z,1001.55
2019-05-02T07:26:52.210Z,1001.55
2019-05-02T07:27:56.623Z,1001.56
2019-05-02T07:29:01.652Z,1001.57
2019-05-02T07:29:58.015Z,1001.56
2019-05-02T07:30:59.821Z,1001.58
2019-05-02T07:32:19.077Z,1001.55
2019-05-02T07:33:16.122Z,1001.56
2019-05-02T07:34:18.787Z,1001.55
2019-05-02T07:35:24.312Z,1001.51
2019-05-02T07:36:31.010Z,1001.55
2019-05-02T07:37:33.139Z,1001.52
2019-05-02T07:38:43.292Z,1001.51
2019-05-02T07:39:42.255Z,1001.54
2019-05-02T07:40:52.868Z,1001.54
2019-05-02T07:42:07.847Z,1001.51
2019-05-02T07:43:02.053Z,1001.52
2019-05-02T07:44:11.279Z,1001.55
2019-05-02T07:45:28.285Z,1001.57
2019-05-02T07:46:29.726Z,1001.56
2019-05-02T07:47:34.784Z,1001.58
2019-05-02T07:48:29.325Z,1001.57
2019-05-02T07:49:41.004Z,1001.61
2019-05-02T07:50:35.892Z,1001.62
2019-05-02T07:51:46.957Z,1001.58
2019-05-02T07:52:54.047Z,1001.67
2019-05-02T07:53:59.980Z,1001.65
2019-05-02T07:55:10.082Z,1001.65
2019-05-02T07:56:12.415Z,1001.64
2019-05-02T07:57:18.122Z,1001.66
2019-05-02T07:58:31.341Z,1001.62
2019-05-02T07:59:37.903Z,1001.62
2019-05-02T08:00:36.970Z,1001.62
2019-05-02T08:01:30.642Z,1001.64
2019-05-02T08:02:44.578Z,1001.63
2019-05-02T08:03:48.899Z,1001.63
2019-05-02T08:04:54.953Z,1001.60
2019-05-02T08:06:06.923Z,1001.69
2019-05-02T08:06:59.663Z,1001.66
2019-05-02T08:08:11.753Z,1001.63
2019-05-02T08:09:24.862Z,1001.62
2019-05-02T08:10:32.558Z,1001.65
2019-05-02T08:11:22.729Z,1001.64
2019-05-02T08:12:48.749Z,1001.57
2019-05-02T08:13:35.544Z,1001.65
2019-05-02T08:15:00.288Z,1001.64
2019-05-02T08:15:56.858Z,1001.70
2019-05-02T08:17:05.006Z,1001.66
2019-05-02T08:17:56.766Z,1001.60
2019-05-02T08:19:16.639Z,1001.65
2019-05-02T08:20:29.035Z,1001.60
2019-05-02T08:21:36.620Z,1001.66
2019-05-02T08:22:21.470Z,1001.66
2019-05-02T08:23:27.816Z,1001.64
2019-05-02T08:25:10.267Z,1001.65
2019-05-02T08:25:41.386Z,1001.62
2019-05-02T08:27:09.419Z,1001.64
2019-05-02T08:27:57.653Z,1001.65
2019-05-02T08:28:59.605Z,1001.70
2019-05-02T08:30:35.310Z,1001.69
2019-05-02T08:31:18.812Z,1001.73
2019-05-02T08:32:12.934Z,1001.69
2019-05-02T08:33:19.291Z,1001.69
2019-05-02T08:35:16.850Z,1001.68
2019-05-02T08:35:48.799Z,1001.72
2019-05-02T08:37:41.241Z,1001.73
2019-05-02T08:38:42.777Z,1001.71
2019-05-02T08:39:33.566Z,1001.73
2019-05-02T08:40:42.331Z,1001.73
2019-05-02T08:41:33.586Z,1001.72
2019-05-02T08:42:56.115Z,1001.74
2019-05-02T08:43:44.821Z,1001.78
2019-05-02T08:45:25.726Z,1001.75
2019-05-02T08:45:54.918Z,1001.77
2019-05-02T08:47:17.839Z,1001.73
2019-05-02T08:48:15.505Z,1001.78
2019-05-02T08:49:31.182Z,1001.77
2019-05-02T08:50:34.091Z,1001.75
2019-05-02T08:51:27.302Z,1001.77
2019-05-02T08:52:18.294Z,1001.78
2019-05-02T08:53:39.109Z,1001.77
2019-05-02T08:54:46.571Z,1001.80
2019-05-02T08:56:00.610Z,1001.79
2019-05-02T08:57:09.218Z,1001.75
2019-05-02T08:57:55.706Z,1001.75
2019-05-02T08:59:13.122Z,1001.78
2019-05-02T09:00:18.553Z,1001.74
2019-05-02T09:01:34.301Z,1001.70
2019-05-02T09:02:40.557Z,1001.73
2019-05-02T09:03:28.216Z,1001.65
2019-05-02T09:04:30.668Z,1001.66
2019-05-02T09:05:36.318Z,1001.62
2019-05-02T09:06:42.668Z,1001.64
2019-05-02T09:07:48.912Z,1001.62
2019-05-02T09:08:40.227Z,1001.68
2019-05-02T09:09:55.522Z,1001.61
2019-05-02T09:11:06.760Z,1001.57
2019-05-02T09:12:12.599Z,1001.64
2019-05-02T09:13:04.928Z,1001.59
2019-05-02T09:14:15.988Z,1001.60
2019-05-02T09:15:23.578Z,1001.57
2019-05-02T09:16:42.681Z,1001.56
2019-05-02T09:17:35.125Z,1001.51
2019-05-02T09:18:54.492Z,1001.55
2019-05-02T09:19:59.174Z,1001.54
2019-05-02T09:20:57.299Z,1001.54
2019-05-02T09:21:59.968Z,1001.51
2019-05-02T09:23:01.763Z,1001.52
2019-05-02T09:24:20.677Z,1001.52
2019-05-02T09:25:12.477Z,1001.51
2019-05-02T09:26:32.467Z,1001.47
2019-05-02T09:27:18.948Z,1001.44
2019-05-02T09:28:34.835Z,1001.46
2019-05-02T09:29:48.858Z,1001.46
2019-05-02T09:30:57.179Z,1001.39
2019-05-02T09:31:47.951Z,1001.39
2019-05-02T09:32:44.622Z,1001.38
2019-05-02T09:33:57.184Z,1001.37
2019-05-02T09:35:08.867Z,1001.34
2019-05-02T09:36:06.821Z,1001.41
2019-05-02T09:37:22.654Z,1001.38
2019-05-02T09:38:18.717Z,1001.35
2019-05-02T09:39:39.006Z,1001.36
2019-05-02T09:40:35.728Z,1001.34
2019-05-02T09:41:36.212Z,1001.33
2019-05-02T09:42:43.033Z,1001.29
2019-05-02T09:43:42.282Z,1001.29
2019-05-02T09:44:56.888Z,1001.33
2019-05-02T09:46:02.574Z,1001.33
2019-05-02T09:47:05.462Z,1001.33
2019-05-02T09:48:21.920Z,1001.30
2019-05-02T09:49:16.492Z,1001.28
2019-05-02T09:50:26.580Z,1001.25
2019-05-02T09:51:24.032Z,1001.24
2019-05-02T09:52:39.192Z,1001.21
2019-05-02T09:53:32.745Z,1001.22
2019-05-02T09:54:41.777Z,1001.20
2019-05-02T09:55:55.128Z,1001.18
2019-05-02T09:56:54.574Z,1001.14
2019-05-02T09:57:58.170Z,1001.15
2019-05-02T09:59:23.366Z,1001.11
2019-05-02T10:00:12.741Z,1001.15
2019-05-02T10:01:18.579Z,1001.10
2019-05-02T10:02:17.548Z,1001.14
2019-05-02T10:03:26.871Z,1001.15
2019-05-02T10:04:44.049Z,1001.14
2019-05-02T10:05:47.574Z,1001.16
2019-05-02T10:06:52.382Z,1001.08
2019-05-02T10:07:42.568Z,1001.07
2019-05-02T10:09:02.802Z,1001.06
2019-05-02T10:10:12.547Z,1001.07
2019-05-02T10:11:07.785Z,1001.04
2019-05-02T10:12:05.633Z,1001.03
2019-05-02T10:13:14.349Z,1001.04
2019-05-02T10:14:22.579Z,1001.03
2019-05-02T10:15:14.975Z,1001.03
2019-05-02T10:16:39.865Z,1000.96
2019-05-02T10:17:44.806Z,1000.99
2019-05-02T10:18:49.093Z,1000.93
2019-05-02T10:19:48.797Z,1000.89
2019-05-02T10:21:08.082Z,1000.88
2019-05-02T10:21:56.410Z,1000.88
2019-05-02T10:23:32.537Z,1000.87
2019-05-02T10:24:15.345Z,1000.83
2019-05-02T10:25:37.688Z,1000.87
2019-05-02T10:26:29.796Z,1000.86
2019-05-02T10:27:57.653Z,1000.90
2019-05-02T10:28:53.331Z,1000.88
2019-05-02T10:29:44.662Z,1000.81
2019-05-02T10:31:22.455Z,1000.85
2019-05-02T10:31:54.203Z,1000.79
2019-05-02T10:33:27.875Z,1000.76
2019-05-02T10:34:17.501Z,1000.69
2019-05-02T10:35:55.561Z,1000.65
2019-05-02T10:36:46.666Z,1000.69
2019-05-02T10:37:42.911Z,1000.65
2019-05-02T10:38:48.881Z,1000.68
2019-05-02T10:39:55.991Z,1000.65
2019-05-02T10:40:59.322Z,1000.69
2019-05-02T10:41:52.838Z,1000.65
2019-05-02T10:43:11.714Z,1000.73
2019-05-02T10:44:12.908Z,1000.68
2019-05-02T10:44:57.773Z,1000.70
2019-05-02T10:46:16.108Z,1000.59
2019-05-02T10:47:13.870Z,1000.57
2019-05-02T10:48:27.459Z,1000.57
2019-05-02T10:49:26.779Z,1000.54
2019-05-02T10:50:28.836Z,1000.52
2019-05-02T10:51:41.098Z,1000.51
2019-05-02T10:52:48.713Z,1000.49
2019-05-02T10:53:42.383Z,1000.50
2019-05-02T10:54:49.240Z,1000.53
2019-05-02T10:55:58.265Z,1000.53
2019-05-02T10:56:58.057Z,1000.53
2019-05-02T10:58:05.642Z,1000.51
2019-05-02T10:59:07.085Z,1000.50
2019-05-02T11:00:24.709Z,1000.45
2019-05-02T11:01:34.955Z,1000.44
2019-05-02T11:02:32.850Z,1000.41
2019-05-02T11:03:31.892Z,1000.34
2019-05-02T11:04:38.451Z,1000.35
2019-05-02T11:05:57.828Z,1000.32
2019-05-02T11:06:51.819Z,1000.30
2019-05-02T11:07:56.769Z,1000.29
2019-05-02T11:09:08.183Z,1000.27
2019-05-02T11:10:14.431Z,1000.28
2019-05-02T11:11:15.359Z,1000.28
2019-05-02T11:12:25.557Z,1000.30
2019-05-02T11:13:37.184Z,1000.31
2019-05-02T11:14:31.886Z,1000.28
2019-05-02T11:15:46.832Z,1000.23
2019-05-02T11:16:42.307Z,1000.17
2019-05-02T11:17:50.114Z,1000.26
2019-05-02T11:19:02.538Z,1000.24
2019-05-02T11:20:07.024Z,1000.20
2019-05-02T11:21:12.202Z,1000.20
2019-05-02T11:22:05.398Z,1000.21
2019-05-02T11:23:12.590Z,1000.21
2019-05-02T11:24:23.434Z,1000.17
2019-05-02T11:25:26.412Z,1000.14
2019-05-02T11:26:36.455Z,1000.11
2019-05-02T11:27:37.279Z,1000.12
2019-05-02T11:28:47.627Z,1000.11
2019-05-02T11:29:42.823Z,1000.14
2019-05-02T11:30:57.036Z,1000.13
2019-05-02T11:31:53.895Z,1000.11
2019-05-02T11:33:04.756Z,1000.08
2019-05-02T11:34:07.528Z,1000.13
2019-05-02T11:35:19.056Z,1000.10
2019-05-02T11:36:19.520Z,1000.05
2019-05-02T11:37:32.911Z,1000.01
2019-05-02T11:38:33.396Z,1000.01
2019-05-02T11:39:44.924Z,999.99
2019-05-02T11:40:38.083Z,1000.00
2019-05-02T11:41:56.729Z,1000.02
2019-05-02T11:43:01.865Z,1000.00
2019-05-02T11:44:12.072Z,999.98
2019-05-02T11:45:12.073Z,999.92
2019-05-02T11:46:18.773Z,999.87
2019-05-02T11:47:21.881Z,999.82
2019-05-02T11:48:24.420Z,999.91
2019-05-02T11:49:32.208Z,999.88
2019-05-02T11:50:36.105Z,999.96
2019-05-02T11:51:46.914Z,999.96
2019-05-02T11:52:42.398Z,999.92
2019-05-02T11:53:42.135Z,999.88
2019-05-02T11:55:01.999Z,999.91
2019-05-02T11:55:53.022Z,999.85
2019-05-02T11:57:11.694Z,999.86
2019-05-02T11:58:15.271Z,999.84
2019-05-02T11:59:14.940Z,999.82
2019-05-02T12:00:21.862Z,999.83
2019-05-02T12:01:37.304Z,999.86
2019-05-02T12:02:36.086Z,999.83
2019-05-02T12:03:42.391Z,999.82
2019-05-02T12:04:47.510Z,999.84
2019-05-02T12:05:58.737Z,999.80
2019-05-02T12:07:04.729Z,999.82
2019-05-02T12:08:12.281Z,999.78
2019-05-02T12:09:08.602Z,999.78
2019-05-02T12:10:12.798Z,999.80
2019-05-02T12:11:27.545Z,999.79
2019-05-02T12:12:36.246Z,999.75
2019-05-02T12:13:32.130Z,999.78
2019-05-02T12:14:36.227Z,999.77
2019-05-02T12:15:42.185Z,999.76
2019-05-02T12:17:06.703Z,999.77
2019-05-02T12:17:54.733Z,999.72
2019-05-02T12:19:08.492Z,999.73
2019-05-02T12:20:04.878Z,999.79
2019-05-02T12:21:32.414Z,999.76
2019-05-02T12:22:23.983Z,999.76
2019-05-02T12:23:32.761Z,999.73
2019-05-02T12:24:40.748Z,999.74
2019-05-02T12:25:32.765Z,999.69
2019-05-02T12:26:42.086Z,999.70
2019-05-02T12:27:52.847Z,999.73
2019-05-02T12:28:47.744Z,999.72
2019-05-02T12:30:13.033Z,999.69
2019-05-02T12:31:07.900Z,999.70
2019-05-02T12:32:15.584Z,999.63
2019-05-02T12:33:16.946Z,999.64
2019-05-02T12:34:23.606Z,999.60
2019-05-02T12:35:35.086Z,999.59
2019-05-02T12:36:33.223Z,999.64
2019-05-02T12:37:51.137Z,999.60
2019-05-02T12:38:49.547Z,999.56
2019-05-02T12:40:07.368Z,999.56
2019-05-02T12:40:57.955Z,999.48
2019-05-02T12:42:12.647Z,999.49
2019-05-02T12:43:19.673Z,999.53
2019-05-02T12:44:38.831Z,999.49
2019-05-02T12:45:35.151Z,999.47
2019-05-02T12:46:33.835Z,999.48
2019-05-02T12:47:48.896Z,999.44
2019-05-02T12:48:36.505Z,999.41
2019-05-02T12:49:51.925Z,999.36
2019-05-02T12:51:09.388Z,999.42
2019-05-02T12:51:46.044Z,999.43
2019-05-02T12:53:07.865Z,999.44
2019-05-02T12:54:04.203Z,999.42
2019-05-02T12:55:07.572Z,999.41
2019-05-02T12:56:08.807Z,999.40
2019-05-02T12:57:31.994Z,999.49
2019-05-02T12:58:28.277Z,999.39
2019-05-02T12:59:37.192Z,999.36
2019-05-02T13:00:47.245Z,999.41
2019-05-02T13:01:44.996Z,999.43
2019-05-02T13:02:53.209Z,999.40
2019-05-02T13:03:54.631Z,999.38
2019-05-02T13:05:17.405Z,999.38
2019-05-02T13:06:17.886Z,999.37
2019-05-02T13:07:23.336Z,999.35
2019-05-02T13:08:18.110Z,999.35
2019-05-02T13:09:20.468Z,999.33
2019-05-02T13:10:21.969Z,999.33
2019-05-02T13:11:52.215Z,999.28
2019-05-02T13:12:32.270Z,999.29
2019-05-02T13:13:49.589Z,999.30
2019-05-02T13:14:42.620Z,999.26
2019-05-02T13:16:12.202Z,999.29
2019-05-02T13:17:23.213Z,999.31
2019-05-02T13:18:34.001Z,999.32
2019-05-02T13:19:19.821Z,999.29
2019-05-02T13:20:15.843Z,999.22
2019-05-02T13:21:38.615Z,999.15
2019-05-02T13:22:28.118Z,999.24
2019-05-02T13:23:42.350Z,999.22
2019-05-02T13:24:38.182Z,999.12
2019-05-02T13:25:42.443Z,999.15
2019-05-02T13:26:38.608Z,999.14
2019-05-02T13:28:06.980Z,999.15